createdAt,value
2019-03-12T00:00:35.364Z,0.00
2019-03-12T00:01:35.159Z,0.00
2019-03-12T00:02:35.133Z,0.00
2019-03-12T00:03:35.132Z,0.00
2019-03-12T00:04:35.143Z,0.00
2019-03-12T00:05:35.109Z,0.00
2019-03-12T00:06:35.153Z,0.00
2019-03-12T00:07:35.110Z,0.00
2019-03-12T00:08:35.083Z,0.00
2019-03-12T00:09:35.061Z,0.00
2019-03-12T00:10:35.125Z,0.00
2019-03-12T00:11:35.042Z,0.00
2019-03-12T00:12:35.068Z,0.00
2019-03-12T00:13:35.047Z,0.00
2019-03-12T00:14:35.014Z,0.00
2019-03-12T00:15:34.994Z,0.00
2019-03-12T00:16:34.994Z,0.00
2019-03-12T00:17:34.982Z,0.00
2019-03-12T00:18:35.007Z,0.00
2019-03-12T00:19:35.026Z,0.00
2019-03-12T00:20:34.951Z,0.00
2019-03-12T00:21:34.960Z,0.00
2019-03-12T00:22:34.920Z,0.00
2019-03-12T00:23:34.908Z,0.00
2019-03-12T00:24:34.947Z,0.00
2019-03-12T00:25:34.911Z,0.00
2019-03-12T00:26:34.874Z,0.00
2019-03-12T00:27:34.870Z,0.00
2019-03-12T00:28:34.859Z,0.00
2019-03-12T00:29:34.848Z,0.00
2019-03-12T00:30:34.879Z,0.00
2019-03-12T00:31:34.844Z,0.00
2019-03-12T00:32:34.816Z,0.00
2019-03-12T00:33:34.808Z,0.00
2019-03-12T00:34:34.796Z,0.00
2019-03-12T00:35:34.785Z,0.00
2019-03-12T00:36:34.815Z,0.00
2019-03-12T00:37:34.777Z,0.00
2019-03-12T00:38:34.750Z,0.00
2019-03-12T00:39:34.743Z,0.00
2019-03-12T00:40:34.739Z,0.00
2019-03-12T00:41:34.722Z,0.00
2019-03-12T00:42:34.767Z,0.00
2019-03-12T00:43:34.701Z,0.00
2019-03-12T00:44:34.765Z,0.00
2019-03-12T00:45:34.686Z,0.00
2019-03-12T00:46:34.681Z,0.00
2019-03-12T00:47:34.660Z,0.00
2019-03-12T00:48:34.747Z,0.00
2019-03-12T00:49:34.642Z,0.00
2019-03-12T00:50:34.631Z,0.00
2019-03-12T00:51:34.666Z,0.00
2019-03-12T00:52:34.619Z,0.00
2019-03-12T00:53:34.625Z,0.00
2019-03-12T00:54:34.633Z,0.00
2019-03-12T00:55:34.600Z,0.00
2019-03-12T00:56:34.564Z,0.00
2019-03-12T00:57:34.551Z,0.00
2019-03-12T00:58:34.553Z,0.00
2019-03-12T00:59:34.531Z,0.00
2019-03-12T01:00:34.545Z,0.00
2019-03-12T01:01:34.503Z,0.00
2019-03-12T01:02:34.545Z,0.00
2019-03-12T01:03:34.494Z,0.00
2019-03-12T01:04:34.470Z,0.00
2019-03-12T01:05:34.469Z,0.00
2019-03-12T01:06:34.505Z,0.00
2019-03-12T01:07:34.473Z,0.00
2019-03-12T01:08:34.428Z,0.00
2019-03-12T01:09:34.435Z,0.00
2019-03-12T01:10:34.414Z,0.00
2019-03-12T01:11:34.396Z,0.00
2019-03-12T01:12:34.455Z,0.00
2019-03-12T01:13:34.384Z,0.00
2019-03-12T01:14:34.382Z,0.00
2019-03-12T01:15:34.371Z,0.00
2019-03-12T01:16:34.346Z,0.00
2019-03-12T01:17:34.360Z,0.00
2019-03-12T01:18:34.358Z,0.00
2019-03-12T01:19:34.327Z,0.00
2019-03-12T01:20:34.301Z,0.00
2019-03-12T01:21:34.317Z,0.00
2019-03-12T01:22:34.293Z,0.00
2019-03-12T01:23:34.290Z,0.00
2019-03-12T01:24:34.352Z,0.00
2019-03-12T01:25:34.250Z,0.00
2019-03-12T01:26:34.239Z,0.00
2019-03-12T01:27:34.243Z,0.00
2019-03-12T01:28:34.258Z,0.00
2019-03-12T01:29:34.211Z,0.00
2019-03-12T01:30:34.254Z,0.00
2019-03-12T01:31:34.189Z,0.00
2019-03-12T01:32:34.176Z,0.00
2019-03-12T01:33:34.166Z,0.00
2019-03-12T01:34:34.168Z,0.00
2019-03-12T01:35:34.178Z,0.00
2019-03-12T01:36:34.228Z,0.00
2019-03-12T01:37:34.126Z,0.00
2019-03-12T01:38:34.121Z,0.00
2019-03-12T01:39:34.117Z,0.00
2019-03-12T01:40:34.103Z,0.00
2019-03-12T01:41:34.129Z,0.00
2019-03-12T01:42:34.125Z,0.00
2019-03-12T01:43:34.064Z,0.00
2019-03-12T01:44:34.076Z,0.00
2019-03-12T01:45:34.065Z,0.00
2019-03-12T01:46:34.027Z,0.00
2019-03-12T01:47:34.031Z,0.00
2019-03-12T01:48:34.069Z,0.00
2019-03-12T01:49:34.010Z,0.00
2019-03-12T01:50:33.998Z,0.00
2019-03-12T01:51:33.984Z,0.00
2019-03-12T01:52:33.971Z,0.00
2019-03-12T01:53:33.961Z,0.00
2019-03-12T01:54:33.989Z,0.00
2019-03-12T01:55:33.943Z,0.00
2019-03-12T01:56:33.922Z,0.00
2019-03-12T01:57:34.026Z,0.00
2019-03-12T01:58:33.906Z,0.00
2019-03-12T01:59:33.890Z,0.00
2019-03-12T02:00:34.024Z,0.00
2019-03-12T02:01:33.870Z,0.00
2019-03-12T02:02:33.884Z,0.00
2019-03-12T02:03:33.849Z,0.00
2019-03-12T02:04:33.842Z,0.00
2019-03-12T02:05:33.831Z,0.00
2019-03-12T02:06:33.874Z,0.00
2019-03-12T02:07:33.805Z,0.00
2019-03-12T02:08:33.838Z,0.00
2019-03-12T02:09:33.791Z,0.00
2019-03-12T02:10:33.815Z,0.00
2019-03-12T02:11:33.760Z,0.00
2019-03-12T02:12:33.790Z,0.00
2019-03-12T02:13:33.789Z,0.00
2019-03-12T02:14:33.767Z,0.00
2019-03-12T02:15:33.723Z,0.00
2019-03-12T02:16:34.993Z,0.00
2019-03-12T02:17:33.767Z,0.00
2019-03-12T02:18:33.841Z,0.00
2019-03-12T02:19:33.674Z,0.00
2019-03-12T02:20:33.668Z,0.00
2019-03-12T02:21:33.702Z,0.00
2019-03-12T02:22:33.687Z,0.00
2019-03-12T02:23:33.647Z,0.00
2019-03-12T02:24:33.648Z,0.00
2019-03-12T02:25:33.629Z,0.00
2019-03-12T02:26:33.609Z,0.00
2019-03-12T02:27:33.603Z,0.00
2019-03-12T02:28:33.595Z,0.00
2019-03-12T02:29:33.573Z,0.00
2019-03-12T02:30:33.640Z,0.00
2019-03-12T02:31:33.559Z,0.00
2019-03-12T02:32:33.552Z,0.00
2019-03-12T02:33:33.526Z,0.00
2019-03-12T02:34:33.511Z,0.00
2019-03-12T02:35:33.508Z,0.00
2019-03-12T02:36:33.541Z,0.00
2019-03-12T02:37:33.504Z,0.00
2019-03-12T02:38:33.474Z,0.00
2019-03-12T02:39:33.469Z,0.00
2019-03-12T02:40:33.454Z,0.00
2019-03-12T02:41:33.438Z,0.00
2019-03-12T02:42:33.472Z,0.00
2019-03-12T02:43:33.432Z,0.00
2019-03-12T02:44:33.417Z,0.00
2019-03-12T02:45:33.407Z,0.00
2019-03-12T02:46:33.384Z,0.00
2019-03-12T02:47:33.392Z,0.00
2019-03-12T02:48:33.585Z,0.00
2019-03-12T02:49:33.376Z,0.00
2019-03-12T02:50:33.372Z,0.00
2019-03-12T02:51:33.332Z,0.00
2019-03-12T02:52:33.329Z,0.00
2019-03-12T02:53:33.320Z,0.00
2019-03-12T02:54:33.344Z,0.00
2019-03-12T02:55:33.295Z,0.00
2019-03-12T02:56:33.306Z,0.00
2019-03-12T02:57:33.269Z,0.00
2019-03-12T02:58:33.261Z,0.00
2019-03-12T02:59:33.261Z,0.00
2019-03-12T03:00:33.391Z,0.00
2019-03-12T03:01:33.232Z,0.00
2019-03-12T03:02:33.237Z,0.00
2019-03-12T03:03:33.212Z,0.00
2019-03-12T03:04:33.198Z,0.00
2019-03-12T03:05:33.190Z,0.00
2019-03-12T03:06:33.227Z,0.00
2019-03-12T03:07:33.172Z,0.00
2019-03-12T03:08:33.177Z,0.00
2019-03-12T03:09:33.143Z,0.00
2019-03-12T03:10:33.148Z,0.00
2019-03-12T03:11:33.124Z,0.00
2019-03-12T03:12:33.153Z,0.00
2019-03-12T03:13:33.107Z,0.00
2019-03-12T03:14:33.102Z,0.00
2019-03-12T03:15:33.081Z,0.00
2019-03-12T03:16:33.074Z,0.00
2019-03-12T03:17:33.066Z,0.00
2019-03-12T03:18:33.094Z,0.00
2019-03-12T03:19:33.058Z,0.00
2019-03-12T03:20:33.058Z,0.00
2019-03-12T03:21:33.043Z,0.00
2019-03-12T03:22:33.047Z,0.00
2019-03-12T03:23:33.019Z,0.00
2019-03-12T03:24:33.019Z,0.00
2019-03-12T03:25:32.975Z,0.00
2019-03-12T03:26:33.007Z,0.00
2019-03-12T03:27:32.948Z,0.00
2019-03-12T03:28:32.968Z,0.00
2019-03-12T03:29:32.932Z,0.00
2019-03-12T03:30:32.950Z,0.00
2019-03-12T03:31:32.915Z,0.00
2019-03-12T03:32:32.899Z,0.00
2019-03-12T03:33:32.902Z,0.00
2019-03-12T03:34:32.925Z,0.00
2019-03-12T03:35:32.865Z,0.00
2019-03-12T03:36:32.900Z,0.00
2019-03-12T03:37:32.838Z,0.00
2019-03-12T03:38:32.826Z,0.00
2019-03-12T03:39:32.829Z,0.00
2019-03-12T03:40:32.829Z,0.00
2019-03-12T03:41:34.761Z,0.00
2019-03-12T03:42:32.969Z,0.00
2019-03-12T03:43:32.820Z,0.00
2019-03-12T03:44:32.770Z,0.00
2019-03-12T03:45:32.765Z,0.00
2019-03-12T03:46:32.750Z,0.00
2019-03-12T03:47:32.761Z,0.00
2019-03-12T03:48:32.775Z,0.00
2019-03-12T03:49:32.739Z,0.00
2019-03-12T03:50:32.748Z,0.00
2019-03-12T03:51:32.701Z,0.00
2019-03-12T03:52:32.690Z,0.00
2019-03-12T03:53:32.679Z,0.00
2019-03-12T03:54:32.725Z,0.00
2019-03-12T03:55:32.662Z,0.00
2019-03-12T03:56:32.675Z,0.00
2019-03-12T03:57:32.630Z,0.00
2019-03-12T03:58:32.637Z,0.00
2019-03-12T03:59:32.610Z,0.00
2019-03-12T04:00:32.791Z,0.00
2019-03-12T04:01:32.591Z,0.00
2019-03-12T04:02:32.610Z,0.00
2019-03-12T04:03:32.623Z,0.00
2019-03-12T04:04:32.554Z,0.00
2019-03-12T04:05:32.587Z,0.00
2019-03-12T04:06:34.345Z,0.00
2019-03-12T04:07:32.535Z,0.00
2019-03-12T04:08:32.518Z,0.00
2019-03-12T04:09:32.504Z,0.00
2019-03-12T04:10:32.522Z,0.00
2019-03-12T04:11:32.519Z,0.00
2019-03-12T04:12:32.509Z,0.00
2019-03-12T04:13:32.458Z,0.00
2019-03-12T04:14:32.445Z,0.00
2019-03-12T04:15:32.461Z,0.00
2019-03-12T04:16:32.428Z,0.00
2019-03-12T04:17:32.434Z,0.00
2019-03-12T04:18:32.467Z,0.00
2019-03-12T04:19:32.397Z,0.00
2019-03-12T04:20:32.385Z,0.00
2019-03-12T04:21:32.407Z,0.00
2019-03-12T04:22:32.367Z,0.00
2019-03-12T04:23:32.355Z,0.00
2019-03-12T04:24:32.378Z,0.00
2019-03-12T04:25:32.331Z,0.00
2019-03-12T04:26:32.316Z,0.00
2019-03-12T04:27:32.320Z,0.00
2019-03-12T04:28:32.295Z,0.00
2019-03-12T04:29:32.281Z,0.00
2019-03-12T04:30:32.332Z,0.00
2019-03-12T04:31:32.280Z,0.00
2019-03-12T04:32:32.249Z,0.00
2019-03-12T04:33:39.798Z,0.00
2019-03-12T04:34:39.780Z,0.00
2019-03-12T04:35:40.897Z,0.00
2019-03-12T04:36:39.772Z,0.00
2019-03-12T04:37:41.398Z,0.00
2019-03-12T04:38:40.755Z,0.00
2019-03-12T04:39:39.734Z,0.00
2019-03-12T04:40:32.164Z,0.00
2019-03-12T04:41:32.452Z,0.00
2019-03-12T04:42:32.166Z,0.00
2019-03-12T04:43:32.147Z,0.00
2019-03-12T04:44:32.135Z,0.00
2019-03-12T04:45:32.213Z,0.00
2019-03-12T04:46:32.208Z,0.00
2019-03-12T04:47:32.153Z,0.00
2019-03-12T04:48:32.137Z,0.00
2019-03-12T04:49:32.088Z,0.00
2019-03-12T04:50:32.078Z,0.00
2019-03-12T04:51:32.064Z,0.00
2019-03-12T04:52:32.074Z,0.00
2019-03-12T04:53:32.080Z,0.00
2019-03-12T04:54:32.027Z,0.00
2019-03-12T04:55:32.051Z,0.00
2019-03-12T04:56:32.030Z,0.00
2019-03-12T04:57:31.988Z,0.00
2019-03-12T04:58:32.004Z,0.00
2019-03-12T04:59:32.002Z,0.00
2019-03-12T05:00:31.991Z,0.00
2019-03-12T05:01:31.959Z,0.00
2019-03-12T05:02:31.950Z,0.00
2019-03-12T05:03:31.926Z,0.00
2019-03-12T05:04:31.947Z,0.00
2019-03-12T05:05:31.955Z,0.00
2019-03-12T05:06:31.893Z,0.00
2019-03-12T05:07:31.972Z,0.00
2019-03-12T05:08:31.890Z,0.00
2019-03-12T05:09:31.876Z,0.00
2019-03-12T05:10:31.888Z,0.00
2019-03-12T05:11:31.973Z,0.00
2019-03-12T05:12:31.838Z,0.00
2019-03-12T05:13:31.831Z,0.00
2019-03-12T05:14:31.810Z,0.00
2019-03-12T05:15:31.793Z,0.00
2019-03-12T05:16:31.802Z,0.00
2019-03-12T05:17:31.821Z,0.00
2019-03-12T05:18:31.759Z,0.00
2019-03-12T05:19:31.746Z,0.00
2019-03-12T05:20:31.735Z,0.00
2019-03-12T05:21:31.768Z,0.00
2019-03-12T05:22:31.720Z,0.00
2019-03-12T05:23:31.765Z,0.00
2019-03-12T05:24:31.723Z,0.00
2019-03-12T05:25:31.683Z,0.00
2019-03-12T05:26:31.673Z,0.00
2019-03-12T05:27:31.698Z,0.00
2019-03-12T05:28:31.658Z,0.00
2019-03-12T05:29:31.704Z,0.00
2019-03-12T05:30:31.633Z,0.00
2019-03-12T05:31:31.625Z,0.00
2019-03-12T05:32:31.615Z,0.00
2019-03-12T05:33:31.625Z,0.00
2019-03-12T05:34:31.590Z,0.00
2019-03-12T05:35:31.630Z,0.00
2019-03-12T05:36:31.567Z,0.00
2019-03-12T05:37:31.558Z,0.00
2019-03-12T05:38:31.548Z,0.00
2019-03-12T05:39:31.546Z,0.00
2019-03-12T05:40:31.523Z,0.00
2019-03-12T05:41:31.555Z,0.00
2019-03-12T05:42:31.510Z,0.00
2019-03-12T05:43:31.493Z,0.00
2019-03-12T05:44:31.516Z,0.00
2019-03-12T05:45:31.471Z,0.00
2019-03-12T05:46:31.490Z,0.00
2019-03-12T05:47:31.494Z,5.62
2019-03-12T05:48:31.447Z,5.62
2019-03-12T05:49:31.427Z,5.62
2019-03-12T05:50:31.432Z,5.62
2019-03-12T05:51:31.447Z,5.62
2019-03-12T05:52:31.405Z,5.62
2019-03-12T05:53:31.449Z,5.62
2019-03-12T05:54:31.386Z,5.62
2019-03-12T05:55:31.361Z,11.25
2019-03-12T05:56:31.353Z,11.25
2019-03-12T05:57:31.354Z,11.25
2019-03-12T05:58:31.333Z,11.25
2019-03-12T05:59:31.374Z,16.88
2019-03-12T06:00:31.321Z,16.88
2019-03-12T06:01:31.298Z,22.50
2019-03-12T06:02:31.288Z,22.50
2019-03-12T06:03:31.376Z,22.50
2019-03-12T06:04:31.271Z,22.50
2019-03-12T06:05:31.286Z,28.12
2019-03-12T06:06:31.260Z,28.12
2019-03-12T06:07:31.236Z,28.12
2019-03-12T06:08:31.230Z,33.75
2019-03-12T06:09:31.212Z,33.75
2019-03-12T06:10:31.201Z,39.38
2019-03-12T06:11:31.240Z,39.38
2019-03-12T06:12:31.179Z,45.00
2019-03-12T06:13:31.182Z,45.00
2019-03-12T06:14:31.156Z,45.00
2019-03-12T06:15:31.146Z,45.00
2019-03-12T06:16:31.134Z,50.62
2019-03-12T06:17:31.170Z,50.62
2019-03-12T06:18:31.112Z,50.62
2019-03-12T06:19:31.124Z,50.62
2019-03-12T06:20:31.093Z,56.25
2019-03-12T06:21:31.083Z,56.25
2019-03-12T06:22:31.069Z,56.25
2019-03-12T06:23:31.101Z,61.88
2019-03-12T06:24:31.050Z,61.88
2019-03-12T06:25:31.055Z,61.88
2019-03-12T06:26:31.026Z,61.88
2019-03-12T06:27:31.017Z,61.88
2019-03-12T06:28:31.343Z,67.50
2019-03-12T06:29:31.043Z,67.50
2019-03-12T06:30:30.983Z,73.12
2019-03-12T06:31:30.990Z,67.50
2019-03-12T06:32:30.960Z,73.12
2019-03-12T06:33:30.952Z,73.12
2019-03-12T06:34:30.945Z,78.75
2019-03-12T06:35:30.965Z,78.75
2019-03-12T06:36:30.917Z,84.38
2019-03-12T06:37:30.940Z,84.38
2019-03-12T06:38:30.895Z,90.00
2019-03-12T06:39:30.884Z,90.00
2019-03-12T06:40:30.873Z,95.62
2019-03-12T06:41:30.902Z,95.62
2019-03-12T06:42:30.851Z,101.25
2019-03-12T06:43:30.861Z,101.25
2019-03-12T06:44:30.828Z,106.88
2019-03-12T06:45:30.820Z,106.88
2019-03-12T06:46:30.807Z,112.50
2019-03-12T06:47:30.829Z,112.50
2019-03-12T06:48:30.792Z,118.12
2019-03-12T06:49:30.790Z,118.12
2019-03-12T06:50:30.778Z,123.75
2019-03-12T06:51:30.760Z,129.38
2019-03-12T06:52:30.745Z,129.38
2019-03-12T06:53:30.783Z,135.00
2019-03-12T06:54:30.733Z,140.62
2019-03-12T06:55:30.714Z,146.25
2019-03-12T06:56:30.705Z,151.88
2019-03-12T06:57:30.721Z,151.88
2019-03-12T06:58:30.699Z,157.50
2019-03-12T06:59:30.709Z,163.12
2019-03-12T07:00:30.664Z,168.75
2019-03-12T07:01:30.651Z,174.38
2019-03-12T07:02:30.652Z,180.00
2019-03-12T07:03:30.677Z,180.00
2019-03-12T07:04:30.614Z,185.62
2019-03-12T07:05:30.664Z,191.25
2019-03-12T07:06:30.653Z,196.88
2019-03-12T07:07:30.611Z,202.50
2019-03-12T07:08:30.592Z,208.12
2019-03-12T07:09:30.563Z,208.12
2019-03-12T07:10:30.554Z,213.75
2019-03-12T07:11:30.588Z,213.75
2019-03-12T07:12:30.536Z,213.75
2019-03-12T07:13:30.520Z,219.38
2019-03-12T07:14:30.522Z,219.38
2019-03-12T07:15:30.495Z,219.38
2019-03-12T07:16:30.488Z,219.38
2019-03-12T07:17:30.506Z,219.38
2019-03-12T07:18:30.466Z,213.75
2019-03-12T07:19:30.464Z,213.75
2019-03-12T07:20:30.487Z,213.75
2019-03-12T07:21:30.474Z,208.12
2019-03-12T07:22:30.417Z,208.12
2019-03-12T07:23:30.476Z,202.50
2019-03-12T07:24:30.402Z,202.50
2019-03-12T07:25:30.388Z,202.50
2019-03-12T07:26:30.376Z,202.50
2019-03-12T07:27:30.417Z,202.50
2019-03-12T07:28:30.356Z,202.50
2019-03-12T07:29:30.372Z,202.50
2019-03-12T07:30:30.335Z,202.50
2019-03-12T07:31:30.323Z,202.50
2019-03-12T07:32:30.314Z,208.12
2019-03-12T07:33:30.337Z,208.12
2019-03-12T07:34:36.769Z,213.75
2019-03-12T07:35:31.429Z,213.75
2019-03-12T07:36:30.282Z,213.75
2019-03-12T07:37:30.266Z,213.75
2019-03-12T07:38:30.247Z,213.75
2019-03-12T07:39:30.232Z,213.75
2019-03-12T07:40:30.242Z,213.75
2019-03-12T07:41:32.722Z,213.75
2019-03-12T07:42:30.975Z,213.75
2019-03-12T07:43:30.433Z,213.75
2019-03-12T07:44:30.345Z,219.38
2019-03-12T07:45:30.191Z,219.38
2019-03-12T07:46:30.158Z,219.38
2019-03-12T07:47:35.792Z,225.00
2019-03-12T07:48:31.136Z,225.00
2019-03-12T07:49:30.124Z,230.62
2019-03-12T07:50:30.132Z,230.62
2019-03-12T07:51:30.106Z,230.62
2019-03-12T07:52:30.097Z,230.62
2019-03-12T07:53:30.121Z,230.62
2019-03-12T07:54:30.095Z,230.62
2019-03-12T07:55:30.097Z,230.62
2019-03-12T07:56:30.056Z,230.62
2019-03-12T07:57:30.040Z,236.25
2019-03-12T07:58:35.744Z,236.25
2019-03-12T07:59:31.055Z,236.25
2019-03-12T08:00:30.029Z,241.88
2019-03-12T08:01:30.003Z,247.50
2019-03-12T08:02:29.990Z,258.75
2019-03-12T08:03:29.974Z,270.00
2019-03-12T08:04:29.961Z,275.62
2019-03-12T08:05:29.986Z,281.25
2019-03-12T08:06:29.952Z,292.50
2019-03-12T08:07:29.933Z,298.12
2019-03-12T08:08:29.922Z,303.75
2019-03-12T08:09:29.942Z,303.75
2019-03-12T08:10:29.903Z,303.75
2019-03-12T08:11:29.951Z,298.12
2019-03-12T08:12:29.875Z,298.12
2019-03-12T08:13:29.864Z,298.12
2019-03-12T08:14:29.900Z,303.75
2019-03-12T08:15:29.863Z,309.38
2019-03-12T08:16:29.846Z,309.38
2019-03-12T08:17:29.874Z,315.00
2019-03-12T08:18:29.814Z,315.00
2019-03-12T08:19:29.802Z,326.25
2019-03-12T08:20:29.800Z,337.50
2019-03-12T08:21:29.785Z,348.75
2019-03-12T08:22:29.774Z,371.25
2019-03-12T08:23:29.825Z,376.88
2019-03-12T08:24:29.748Z,388.12
2019-03-12T08:25:29.734Z,393.75
2019-03-12T08:26:29.750Z,399.38
2019-03-12T08:27:29.717Z,399.38
2019-03-12T08:28:29.702Z,399.38
2019-03-12T08:29:29.743Z,388.12
2019-03-12T08:30:29.681Z,376.88
2019-03-12T08:31:29.674Z,376.88
2019-03-12T08:32:29.658Z,376.88
2019-03-12T08:33:29.700Z,376.88
2019-03-12T08:34:29.637Z,382.50
2019-03-12T08:35:29.666Z,388.12
2019-03-12T08:36:29.646Z,399.38
2019-03-12T08:37:29.605Z,399.38
2019-03-12T08:38:29.591Z,399.38
2019-03-12T08:39:29.619Z,405.00
2019-03-12T08:40:29.576Z,416.25
2019-03-12T08:41:29.597Z,433.12
2019-03-12T08:42:29.548Z,444.38
2019-03-12T08:43:29.539Z,450.00
2019-03-12T08:44:29.541Z,455.62
2019-03-12T08:45:29.558Z,455.62
2019-03-12T08:46:29.514Z,455.62
2019-03-12T08:47:29.530Z,450.00
2019-03-12T08:48:29.488Z,444.38
2019-03-12T08:49:29.479Z,444.38
2019-03-12T08:50:29.460Z,444.38
2019-03-12T08:51:29.489Z,450.00
2019-03-12T08:52:29.443Z,455.62
2019-03-12T08:53:29.483Z,466.88
2019-03-12T08:54:29.421Z,478.12
2019-03-12T08:55:29.416Z,489.38
2019-03-12T08:56:32.539Z,495.00
2019-03-12T08:57:29.402Z,495.00
2019-03-12T08:58:29.382Z,495.00
2019-03-12T08:59:29.413Z,500.62
2019-03-12T09:00:29.352Z,506.25
2019-03-12T09:01:29.346Z,511.88
2019-03-12T09:02:29.344Z,523.12
2019-03-12T09:03:29.342Z,534.38
2019-03-12T09:04:29.320Z,540.00
2019-03-12T09:05:29.351Z,545.62
2019-03-12T09:06:29.298Z,551.25
2019-03-12T09:07:29.275Z,556.88
2019-03-12T09:08:29.265Z,562.50
2019-03-12T09:09:29.278Z,573.75
2019-03-12T09:10:29.243Z,579.38
2019-03-12T09:11:29.292Z,579.38
2019-03-12T09:12:29.225Z,579.38
2019-03-12T09:13:29.215Z,579.38
2019-03-12T09:14:29.211Z,573.75
2019-03-12T09:15:29.214Z,568.12
2019-03-12T09:16:29.182Z,573.75
2019-03-12T09:17:29.209Z,568.12
2019-03-12T09:18:29.167Z,568.12
2019-03-12T09:19:29.226Z,573.75
2019-03-12T09:20:29.136Z,573.75
2019-03-12T09:21:29.144Z,573.75
2019-03-12T09:22:29.113Z,579.38
2019-03-12T09:23:29.155Z,585.00
2019-03-12T09:24:29.096Z,590.62
2019-03-12T09:25:29.079Z,585.00
2019-03-12T09:26:29.067Z,579.38
2019-03-12T09:27:29.058Z,590.62
2019-03-12T09:28:29.082Z,579.38
2019-03-12T09:29:29.075Z,573.75
2019-03-12T09:30:29.023Z,573.75
2019-03-12T09:31:29.013Z,579.38
2019-03-12T09:32:29.000Z,585.00
2019-03-12T09:33:28.990Z,585.00
2019-03-12T09:34:29.014Z,590.62
2019-03-12T09:35:29.017Z,590.62
2019-03-12T09:36:28.956Z,590.62
2019-03-12T09:37:28.946Z,590.62
2019-03-12T09:38:28.935Z,579.38
2019-03-12T09:39:29.047Z,573.75
2019-03-12T09:40:28.917Z,568.12
2019-03-12T09:41:28.971Z,551.25
2019-03-12T09:42:28.896Z,534.38
2019-03-12T09:43:28.882Z,523.12
2019-03-12T09:44:28.869Z,506.25
2019-03-12T09:45:28.857Z,483.75
2019-03-12T09:46:28.850Z,455.62
2019-03-12T09:47:28.902Z,433.12
2019-03-12T09:48:28.827Z,405.00
2019-03-12T09:49:28.816Z,382.50
2019-03-12T09:50:28.816Z,376.88
2019-03-12T09:51:28.795Z,371.25
2019-03-12T09:52:28.786Z,371.25
2019-03-12T09:53:28.816Z,371.25
2019-03-12T09:54:28.759Z,371.25
2019-03-12T09:55:28.774Z,371.25
2019-03-12T09:56:28.739Z,371.25
2019-03-12T09:57:28.731Z,365.62
2019-03-12T09:58:28.720Z,348.75
2019-03-12T09:59:28.785Z,337.50
2019-03-12T10:00:28.697Z,326.25
2019-03-12T10:01:28.702Z,320.62
2019-03-12T10:02:28.672Z,320.62
2019-03-12T10:03:28.662Z,331.88
2019-03-12T10:04:28.862Z,343.12
2019-03-12T10:05:28.712Z,354.38
2019-03-12T10:06:28.631Z,365.62
2019-03-12T10:07:28.618Z,376.88
2019-03-12T10:08:28.609Z,382.50
2019-03-12T10:09:28.608Z,388.12
2019-03-12T10:10:28.586Z,393.75
2019-03-12T10:11:28.633Z,410.62
2019-03-12T10:12:28.568Z,421.88
2019-03-12T10:13:28.555Z,427.50
2019-03-12T10:14:28.567Z,427.50
2019-03-12T10:15:28.537Z,433.12
2019-03-12T10:16:28.523Z,450.00
2019-03-12T10:17:28.600Z,472.50
2019-03-12T10:18:28.501Z,489.38
2019-03-12T10:19:28.491Z,506.25
2019-03-12T10:20:28.487Z,523.12
2019-03-12T10:21:28.469Z,528.75
2019-03-12T10:22:28.454Z,540.00
2019-03-12T10:23:28.523Z,540.00
2019-03-12T10:24:28.869Z,551.25
2019-03-12T10:25:28.428Z,556.88
2019-03-12T10:26:28.425Z,568.12
2019-03-12T10:27:28.435Z,568.12
2019-03-12T10:28:28.389Z,573.75
2019-03-12T10:29:28.448Z,585.00
2019-03-12T10:30:28.374Z,596.25
2019-03-12T10:31:28.360Z,613.12
2019-03-12T10:32:28.351Z,635.62
2019-03-12T10:33:28.338Z,663.75
2019-03-12T10:34:29.886Z,686.25
2019-03-12T10:35:28.374Z,686.25
2019-03-12T10:36:30.927Z,669.38
2019-03-12T10:37:28.295Z,652.50
2019-03-12T10:38:28.281Z,630.00
2019-03-12T10:39:28.276Z,618.75
2019-03-12T10:40:28.260Z,624.38
2019-03-12T10:41:28.316Z,646.88
2019-03-12T10:42:28.272Z,663.75
2019-03-12T10:43:28.225Z,675.00
2019-03-12T10:44:28.215Z,680.62
2019-03-12T10:45:28.220Z,675.00
2019-03-12T10:46:28.197Z,691.88
2019-03-12T10:47:28.236Z,697.50
2019-03-12T10:48:28.184Z,708.75
2019-03-12T10:49:37.424Z,714.38
2019-03-12T10:50:29.164Z,720.00
2019-03-12T10:51:28.146Z,725.62
2019-03-12T10:52:28.135Z,720.00
2019-03-12T10:53:28.184Z,731.25
2019-03-12T10:54:28.122Z,736.88
2019-03-12T10:55:28.103Z,742.50
2019-03-12T10:56:28.085Z,748.12
2019-03-12T10:57:28.079Z,736.88
2019-03-12T10:58:28.064Z,736.88
2019-03-12T10:59:28.105Z,736.88
2019-03-12T11:00:28.058Z,731.25
2019-03-12T11:01:28.039Z,725.62
2019-03-12T11:02:28.020Z,725.62
2019-03-12T11:03:28.065Z,725.62
2019-03-12T11:04:27.997Z,714.38
2019-03-12T11:05:28.035Z,708.75
2019-03-12T11:06:27.996Z,703.12
2019-03-12T11:07:27.972Z,697.50
2019-03-12T11:08:27.951Z,691.88
2019-03-12T11:09:27.939Z,697.50
2019-03-12T11:10:27.931Z,703.12
2019-03-12T11:11:27.986Z,703.12
2019-03-12T11:12:27.927Z,703.12
2019-03-12T11:13:27.899Z,708.75
2019-03-12T11:14:27.888Z,708.75
2019-03-12T11:15:27.878Z,708.75
2019-03-12T11:16:27.861Z,708.75
2019-03-12T11:17:27.914Z,708.75
2019-03-12T11:18:27.860Z,714.38
2019-03-12T11:19:27.833Z,714.38
2019-03-12T11:20:27.817Z,720.00
2019-03-12T11:21:27.814Z,720.00
2019-03-12T11:22:27.795Z,725.62
2019-03-12T11:23:27.843Z,725.62
2019-03-12T11:24:27.799Z,720.00
2019-03-12T11:25:28.309Z,725.62
2019-03-12T11:26:27.750Z,748.12
2019-03-12T11:27:27.741Z,765.00
2019-03-12T11:28:27.750Z,776.25
2019-03-12T11:29:27.788Z,776.25
2019-03-12T11:30:27.715Z,793.12
2019-03-12T11:31:27.698Z,793.12
2019-03-12T11:32:27.681Z,798.75
2019-03-12T11:33:27.670Z,804.38
2019-03-12T11:34:27.658Z,815.62
2019-03-12T11:35:38.339Z,804.38
2019-03-12T11:36:28.656Z,804.38
2019-03-12T11:37:27.636Z,804.38
2019-03-12T11:38:27.617Z,804.38
2019-03-12T11:39:27.612Z,804.38
2019-03-12T11:40:32.012Z,804.38
2019-03-12T11:41:28.633Z,810.00
2019-03-12T11:42:27.575Z,826.88
2019-03-12T11:43:27.609Z,832.50
2019-03-12T11:44:27.554Z,849.38
2019-03-12T11:45:36.268Z,826.88
2019-03-12T11:46:28.533Z,821.25
2019-03-12T11:47:27.605Z,838.12
2019-03-12T11:48:27.515Z,928.12
2019-03-12T11:49:27.518Z,978.75
2019-03-12T11:50:27.529Z,956.25
2019-03-12T11:51:27.471Z,888.75
2019-03-12T11:52:27.465Z,1018.12
2019-03-12T11:53:27.511Z,1035.00
2019-03-12T11:54:27.438Z,1057.50
2019-03-12T11:55:27.456Z,860.62
2019-03-12T11:56:27.452Z,990.00
2019-03-12T11:57:27.421Z,928.12
2019-03-12T11:58:27.423Z,821.25
2019-03-12T11:59:27.451Z,810.00
2019-03-12T12:00:27.814Z,821.25
2019-03-12T12:01:27.362Z,765.00
2019-03-12T12:02:27.350Z,759.38
2019-03-12T12:03:27.362Z,793.12
2019-03-12T12:04:27.333Z,748.12
2019-03-12T12:05:27.367Z,714.38
2019-03-12T12:06:27.314Z,708.75
2019-03-12T12:07:27.298Z,720.00
2019-03-12T12:08:27.300Z,708.75
2019-03-12T12:09:27.576Z,697.50
2019-03-12T12:10:27.304Z,686.25
2019-03-12T12:11:27.284Z,669.38
2019-03-12T12:12:27.247Z,652.50
2019-03-12T12:13:27.232Z,641.25
2019-03-12T12:14:27.219Z,630.00
2019-03-12T12:15:27.215Z,601.88
2019-03-12T12:16:27.198Z,585.00
2019-03-12T12:17:27.351Z,573.75
2019-03-12T12:18:27.177Z,562.50
2019-03-12T12:19:27.166Z,562.50
2019-03-12T12:20:30.102Z,585.00
2019-03-12T12:21:27.144Z,607.50
2019-03-12T12:22:27.132Z,601.88
2019-03-12T12:23:27.181Z,601.88
2019-03-12T12:24:27.110Z,596.25
2019-03-12T12:25:27.099Z,596.25
2019-03-12T12:26:27.104Z,601.88
2019-03-12T12:27:27.076Z,618.75
2019-03-12T12:28:27.067Z,641.25
2019-03-12T12:29:27.087Z,652.50
2019-03-12T12:30:27.043Z,675.00
2019-03-12T12:31:27.032Z,697.50
2019-03-12T12:32:27.029Z,714.38
2019-03-12T12:33:27.013Z,703.12
2019-03-12T12:34:26.999Z,663.75
2019-03-12T12:35:27.044Z,613.12
2019-03-12T12:36:26.982Z,585.00
2019-03-12T12:37:26.973Z,556.88
2019-03-12T12:38:26.979Z,551.25
2019-03-12T12:39:26.944Z,556.88
2019-03-12T12:40:26.933Z,562.50
2019-03-12T12:41:26.969Z,568.12
2019-03-12T12:42:26.912Z,562.50
2019-03-12T12:43:26.923Z,556.88
2019-03-12T12:44:26.969Z,540.00
2019-03-12T12:45:26.884Z,517.50
2019-03-12T12:46:26.866Z,495.00
2019-03-12T12:47:26.880Z,489.38
2019-03-12T12:48:26.844Z,489.38
2019-03-12T12:49:26.832Z,483.75
2019-03-12T12:50:26.820Z,478.12
2019-03-12T12:51:26.809Z,472.50
2019-03-12T12:52:26.802Z,472.50